Kerens, TX (75144)

8:59 AM CST on December 03, 2016 (GMT -0600)
Eureka-RC | | Change Station

Elev 338 ft 32.02 °N, 96.24 °W | Updated 3 minutes ago

Heavy Rain
Heavy Rain Mist
50.9 °F
Feels Like 50.9 °F
N
13.0
Wind Variable Wind from ENE
Gusts 20.0 mph

Today
High -- | Low -- °F
--% Chance of Precip.
Yesterday
High -- | Low -- °F
Precip. -- in
Pressure 30.08 in
Visibility 2.5 miles
Clouds Scattered Clouds 700 ft
Mostly Cloudy 1200 ft
Overcast 3800 ft
Dew Point 50 °F
Humidity 96%
Rainfall 0.91 in
Snow Depth Not available.
7:09 AM 5:19 PM
Waxing Crescent, 15% visible
METAR KCRS 031453Z AUTO 06010KT 2 1/2SM +RA BR SCT007 BKN012 OVC038 10/09 A3008 RMK AO2 SLP184 P0022 60067 T01000089 50002
Pressure 30.08 in
Visibility 2.5 miles
Clouds Scattered Clouds 700 ft
Mostly Cloudy 1200 ft
Overcast 3800 ft
Dew Point 50 °F
Humidity 96%
Rainfall 0.91 in
Snow Depth Not available.
7:09 AM 5:19 PM
Waxing Crescent, 15% visible
METAR KCRS 031453Z AUTO 06010KT 2 1/2SM +RA BR SCT007 BKN012 OVC038 10/09 A3008 RMK AO2 SLP184 P0022 60067 T01000089 50002

10-Day Weather Forecast

Almanac

Astronomy

Dec. 03, 2016 Rise Set
Actual Time
Civil Twilight
Nautical Twilight
Astronomical Twilight
Moon
Length of Visible Light
Length of Day
Tomorrow will be .
, % of the Moon is Illuminated

Today's Extremes

State Highs State Lows

Community

WunderPhotos

Upload Photos

1,955,449 photos uploaded!

WunderBlog® & News

Nearby

Air Quality

  Air Quality AQ Index Pollutant
Not available.

Snow Depth

Station Depth Elevation

Earthquake Activity

City Distance Mag. Time & Date
Minimum magnitude displayed is 2.5.

Coastal Water Temperatures

Place Temperature

Stations

Nearby Weather Stations

Station Location Temp. Windchill Dew Point Humidity Wind Precip. Elev Updated Type
                   

Watches & Warnings

There are currently no watches in effect.